Time;durP1;ratioP1;P1;durP2;ratioP2;P2;SDS_P1;SDS_P2;PMS_P1;PMS_P2;Temp;Humidity;BMP_temperature;BMP_pressure;BME280_temperature;BME280_humidity;BME280_pressure;Samples;Min_cycle;Max_cycle;Signal;HPM_P1;HPM_P2
2021/08/16 00:01:45;;;;;;;9.20;2.65;;;18.80;99.90;;;;;;5027559;28;20134;-41
2021/08/16 00:04:10;;;;;;;10.85;3.63;;;18.90;99.90;;;;;;5028648;28;20018;-42
2021/08/16 00:06:36;;;;;;;9.00;3.03;;;18.90;99.90;;;;;;5029067;28;20036;-40
2021/08/16 00:09:02;;;;;;;9.40;3.03;;;18.90;99.90;;;;;;5027469;28;20155;-36
2021/08/16 00:11:28;;;;;;;8.40;2.95;;;19.00;99.90;;;;;;5028200;28;20036;-39
2021/08/16 00:13:53;;;;;;;12.27;3.05;;;19.00;99.90;;;;;;5027929;28;20037;-40
2021/08/16 00:16:19;;;;;;;10.48;3.25;;;19.00;99.90;;;;;;5028120;28;20029;-38
2021/08/16 00:18:47;;;;;;;11.70;3.15;;;19.00;99.90;;;;;;5028404;28;20385;-40
2021/08/16 00:21:14;;;;;;;12.70;3.08;;;19.00;99.90;;;;;;5028224;28;20053;-42
2021/08/16 00:23:40;;;;;;;6.35;2.40;;;19.00;99.90;;;;;;5027901;28;20038;-39
2021/08/16 00:26:05;;;;;;;13.43;2.58;;;19.00;99.90;;;;;;5027605;28;20029;-41
2021/08/16 00:28:31;;;;;;;10.02;2.83;;;19.00;99.90;;;;;;5027954;28;20048;-39
2021/08/16 00:30:56;;;;;;;12.15;2.90;;;19.00;99.90;;;;;;5027555;28;20045;-37
2021/08/16 00:33:22;;;;;;;11.15;3.15;;;19.00;99.90;;;;;;5028547;28;20062;-40
2021/08/16 00:35:47;;;;;;;10.38;3.08;;;19.00;99.90;;;;;;5027326;28;20438;-39
2021/08/16 00:38:13;;;;;;;12.82;4.07;;;19.00;99.90;;;;;;5028358;28;20049;-42
2021/08/16 00:40:39;;;;;;;7.25;2.90;;;18.90;99.90;;;;;;5028258;28;20096;-38
2021/08/16 00:43:04;;;;;;;9.82;3.20;;;18.90;99.90;;;;;;5027853;28;20377;-39
2021/08/16 00:45:30;;;;;;;12.00;3.67;;;18.90;99.90;;;;;;5027538;28;20250;-41
2021/08/16 00:47:56;;;;;;;9.82;2.63;;;18.80;99.90;;;;;;5027851;28;20096;-42
2021/08/16 00:50:25;;;;;;;8.73;2.60;;;18.90;99.90;;;;;;5027928;28;20131;-38
2021/08/16 00:52:50;;;;;;;11.75;3.15;;;18.90;99.90;;;;;;5027870;28;20021;-40
2021/08/16 00:55:20;;;;;;;7.13;3.03;;;18.80;99.90;;;;;;5028247;28;20029;-38
2021/08/16 00:57:45;;;;;;;10.25;2.50;;;18.80;99.90;;;;;;5027459;28;20021;-41
2021/08/16 01:00:12;;;;;;;9.65;3.28;;;18.80;99.90;;;;;;5027562;28;20020;-37
2021/08/16 01:02:44;;;;;;;8.55;3.28;;;18.80;99.90;;;;;;5027822;28;20029;-42
2021/08/16 01:05:12;;;;;;;10.82;3.17;;;18.70;99.90;;;;;;5027463;28;20028;-39
2021/08/16 01:07:39;;;;;;;8.07;2.80;;;18.70;99.90;;;;;;5027982;28;20022;-36
2021/08/16 01:10:09;;;;;;;13.43;3.33;;;18.70;99.90;;;;;;5027225;28;20144;-42
2021/08/16 01:12:38;;;;;;;13.88;3.85;;;18.70;99.90;;;;;;5028192;28;20516;-41
2021/08/16 01:15:08;;;;;;;11.75;3.13;;;18.70;99.90;;;;;;5027724;28;20294;-42
2021/08/16 01:17:36;;;;;;;6.75;2.40;;;18.70;99.90;;;;;;5027725;28;20021;-41
2021/08/16 01:20:04;;;;;;;14.20;3.47;;;18.80;99.90;;;;;;5031308;28;20033;-41
2021/08/16 01:22:30;;;;;;;11.50;3.33;;;18.70;99.90;;;;;;5031460;28;20019;-42
2021/08/16 01:24:56;;;;;;;12.23;3.03;;;18.70;99.90;;;;;;5029961;28;20025;-36
2021/08/16 01:27:21;;;;;;;13.00;3.15;;;18.80;99.90;;;;;;5031529;28;20391;-40
2021/08/16 01:29:47;;;;;;;11.65;3.38;;;18.80;99.90;;;;;;5030847;28;20033;-42
2021/08/16 01:32:12;;;;;;;8.90;2.88;;;18.80;99.90;;;;;;5030866;28;20025;-39
2021/08/16 01:34:38;;;;;;;9.57;2.80;;;18.80;99.90;;;;;;5031395;28;20125;-41
2021/08/16 01:37:06;;;;;;;10.52;2.95;;;18.70;99.90;;;;;;5030412;28;20034;-41
2021/08/16 01:39:32;;;;;;;10.23;2.80;;;18.80;99.90;;;;;;5030989;28;20060;-42
2021/08/16 01:41:58;;;;;;;12.98;2.85;;;18.80;99.90;;;;;;5030886;28;20053;-42
2021/08/16 01:44:23;;;;;;;13.60;3.58;;;18.70;99.90;;;;;;5031165;28;20076;-37
2021/08/16 01:46:50;;;;;;;7.22;2.60;;;18.70;99.90;;;;;;5030249;28;20075;-39
2021/08/16 01:49:16;;;;;;;10.45;2.95;;;18.70;99.90;;;;;;5030534;28;20047;-42
2021/08/16 01:51:42;;;;;;;10.63;3.15;;;18.60;99.90;;;;;;5030798;28;20017;-39
2021/08/16 01:54:11;;;;;;;9.93;3.95;;;18.60;99.90;;;;;;5029650;28;20025;-39
2021/08/16 01:56:39;;;;;;;10.98;2.83;;;18.60;99.90;;;;;;5031133;28;20485;-39
2021/08/16 01:59:05;;;;;;;11.18;2.85;;;18.50;99.90;;;;;;5030402;28;20112;-40
2021/08/16 02:01:31;;;;;;;11.98;3.28;;;18.50;99.90;;;;;;5030305;28;20044;-40
2021/08/16 02:03:56;;;;;;;11.45;4.18;;;18.50;99.90;;;;;;5030384;28;20469;-39
2021/08/16 02:06:25;;;;;;;8.68;3.45;;;18.50;99.90;;;;;;5030240;28;20028;-42
2021/08/16 02:08:51;;;;;;;8.07;2.55;;;18.50;99.90;;;;;;5030159;28;20043;-41
2021/08/16 02:11:19;;;;;;;10.63;3.10;;;18.40;99.90;;;;;;5030561;28;20477;-41
2021/08/16 02:13:48;;;;;;;12.25;3.28;;;18.40;99.90;;;;;;5029287;28;20060;-39
2021/08/16 02:16:14;;;;;;;8.82;2.92;;;18.40;99.90;;;;;;5019876;28;20030;-40
2021/08/16 02:18:40;;;;;;;11.60;3.35;;;18.40;99.90;;;;;;5015218;28;20370;-39
2021/08/16 02:21:06;;;;;;;9.70;3.35;;;18.30;99.90;;;;;;5029114;28;20060;-41
2021/08/16 02:23:31;;;;;;;11.02;3.22;;;18.30;99.90;;;;;;5030995;28;20033;-39
2021/08/16 02:26:00;;;;;;;11.48;3.38;;;18.30;99.90;;;;;;5030098;28;20018;-41
2021/08/16 02:28:29;;;;;;;13.05;3.10;;;18.30;99.90;;;;;;5030104;28;20033;-39
2021/08/16 02:30:58;;;;;;;14.70;3.42;;;18.20;99.90;;;;;;5029956;28;20056;-39
2021/08/16 02:33:27;;;;;;;12.40;3.45;;;18.20;99.90;;;;;;5030747;28;20108;-39
2021/08/16 02:35:52;;;;;;;11.15;3.30;;;18.20;99.90;;;;;;5029206;28;20033;-36
2021/08/16 02:38:18;;;;;;;12.23;3.47;;;18.20;99.90;;;;;;5030319;28;20036;-39
2021/08/16 02:40:43;;;;;;;13.10;3.58;;;18.10;99.90;;;;;;5030653;28;20224;-40
2021/08/16 02:43:09;;;;;;;9.90;3.10;;;18.10;99.90;;;;;;5028873;28;20385;-37
2021/08/16 02:45:38;;;;;;;9.95;2.88;;;18.10;99.90;;;;;;5029896;28;20028;-41
2021/08/16 02:48:03;;;;;;;10.93;3.38;;;18.10;99.90;;;;;;5029504;28;20029;-41
2021/08/16 02:50:29;;;;;;;12.23;3.25;;;18.10;99.90;;;;;;5028640;28;20083;-37
2021/08/16 02:52:55;;;;;;;12.43;3.10;;;18.00;99.90;;;;;;5029691;28;20017;-41
2021/08/16 02:55:20;;;;;;;10.68;2.85;;;18.10;99.90;;;;;;5030257;28;20508;-40
2021/08/16 02:57:46;;;;;;;12.13;2.90;;;18.10;99.90;;;;;;5029213;28;20030;-44
2021/08/16 03:00:13;;;;;;;13.35;3.40;;;18.10;99.90;;;;;;5029613;28;20024;-39
2021/08/16 03:02:39;;;;;;;11.60;3.35;;;18.10;99.90;;;;;;5018209;28;20548;-40
2021/08/16 03:05:08;;;;;;;13.85;3.00;;;18.10;99.90;;;;;;5029013;28;20506;-41
2021/08/16 03:07:33;;;;;;;17.95;3.83;;;18.10;99.90;;;;;;5029449;28;20107;-37
2021/08/16 03:09:59;;;;;;;13.07;3.58;;;18.10;99.90;;;;;;5028838;28;20033;-40
2021/08/16 03:12:24;;;;;;;9.77;3.03;;;18.00;99.90;;;;;;5029498;28;20421;-40
2021/08/16 03:14:50;;;;;;;10.98;3.15;;;18.10;99.90;;;;;;5028929;28;20389;-40
2021/08/16 03:17:21;;;;;;;8.95;3.03;;;18.10;99.90;;;;;;5029199;28;20399;-38
2021/08/16 03:19:47;;;;;;;14.98;3.90;;;18.10;99.90;;;;;;5029111;28;20084;-39
2021/08/16 03:22:12;;;;;;;11.90;3.75;;;18.10;99.90;;;;;;5029703;28;20033;-39
2021/08/16 03:24:37;;;;;;;10.85;3.58;;;18.10;99.90;;;;;;5028654;28;20025;-34
2021/08/16 03:27:03;;;;;;;7.50;2.90;;;18.10;99.90;;;;;;5028717;28;20064;-40
2021/08/16 03:29:29;;;;;;;10.40;3.17;;;18.10;99.90;;;;;;5028914;28;20148;-40
2021/08/16 03:31:54;;;;;;;8.88;2.78;;;18.10;99.90;;;;;;5028489;28;20029;-42
2021/08/16 03:34:20;;;;;;;10.20;3.20;;;18.20;99.90;;;;;;5029341;28;20017;-39
2021/08/16 03:36:45;;;;;;;13.68;3.38;;;18.20;99.90;;;;;;5028493;28;20033;-39
2021/08/16 03:39:11;;;;;;;11.27;2.65;;;18.20;99.90;;;;;;5028457;28;20021;-39
2021/08/16 03:41:37;;;;;;;9.50;2.58;;;18.20;99.90;;;;;;5028795;28;20022;-41
2021/08/16 03:44:03;;;;;;;7.50;1.95;;;18.10;99.90;;;;;;5028743;28;20020;-42
2021/08/16 03:46:31;;;;;;;8.88;2.60;;;18.20;99.90;;;;;;5028829;28;20036;-41
2021/08/16 03:48:57;;;;;;;14.13;3.85;;;18.20;99.90;;;;;;5028214;28;20033;-41
2021/08/16 03:51:23;;;;;;;10.20;3.00;;;18.30;99.90;;;;;;5029142;28;20671;-39
2021/08/16 03:53:48;;;;;;;12.93;3.42;;;18.20;99.90;;;;;;5028011;28;20013;-41
2021/08/16 03:56:14;;;;;;;10.98;3.45;;;18.30;99.90;;;;;;5028960;28;20041;-39
2021/08/16 03:58:41;;;;;;;9.50;2.92;;;18.30;99.90;;;;;;5028887;28;20437;-42
2021/08/16 04:01:08;;;;;;;10.45;2.67;;;18.30;99.90;;;;;;5028272;28;20100;-41
2021/08/16 04:03:34;;;;;;;9.40;2.90;;;18.30;99.90;;;;;;5028265;28;20175;-39
2021/08/16 04:05:59;;;;;;;11.85;3.42;;;18.30;99.90;;;;;;5028338;28;20533;-38
2021/08/16 04:08:25;;;;;;;8.27;2.72;;;18.30;99.90;;;;;;5028541;28;20017;-38
2021/08/16 04:10:51;;;;;;;9.45;2.88;;;18.30;99.90;;;;;;5028616;28;20035;-38
2021/08/16 04:13:16;;;;;;;13.40;3.25;;;18.30;99.90;;;;;;5027789;28;20432;-38
2021/08/16 04:15:41;;;;;;;8.73;3.15;;;18.30;99.90;;;;;;5028150;28;20033;-34
2021/08/16 04:18:07;;;;;;;10.13;3.30;;;18.30;99.90;;;;;;5028472;28;20021;-37
2021/08/16 04:20:33;;;;;;;11.70;3.50;;;18.30;99.90;;;;;;5028499;28;20056;-41
2021/08/16 04:22:58;;;;;;;8.98;2.90;;;18.30;99.90;;;;;;5028276;28;20461;-38
2021/08/16 04:25:24;;;;;;;13.90;3.25;;;18.30;99.90;;;;;;5028763;28;20099;-41
2021/08/16 04:27:50;;;;;;;10.15;2.80;;;18.30;99.90;;;;;;5027283;28;20028;-39
2021/08/16 04:30:16;;;;;;;9.75;3.08;;;18.30;99.90;;;;;;5028171;28;20129;-37
2021/08/16 04:32:42;;;;;;;6.22;2.38;;;18.30;99.90;;;;;;5029227;28;20025;-38
2021/08/16 04:35:09;;;;;;;8.68;2.70;;;18.20;99.90;;;;;;5027647;28;20108;-37
2021/08/16 04:37:39;;;;;;;8.55;3.42;;;18.20;99.90;;;;;;5028888;28;20025;-40
2021/08/16 04:40:06;;;;;;;12.77;4.28;;;18.20;99.90;;;;;;5028008;28;20109;-39
2021/08/16 04:42:33;;;;;;;12.15;3.35;;;18.20;99.90;;;;;;5028079;28;20474;-40
2021/08/16 04:44:58;;;;;;;12.80;3.35;;;18.10;99.90;;;;;;5027889;28;20071;-40
2021/08/16 04:47:30;;;;;;;8.75;3.17;;;18.10;99.90;;;;;;5028610;28;20034;-41
2021/08/16 04:49:56;;;;;;;11.43;3.55;;;18.20;99.90;;;;;;5027257;28;20049;-40
2021/08/16 04:52:23;;;;;;;11.30;3.92;;;18.20;99.90;;;;;;5027971;28;20017;-36
2021/08/16 04:54:48;;;;;;;11.88;3.55;;;18.20;99.90;;;;;;5031439;28;20397;-41
2021/08/16 04:57:14;;;;;;;9.32;3.50;;;18.20;99.90;;;;;;5031381;28;20501;-38
2021/08/16 04:59:39;;;;;;;13.02;3.50;;;18.20;99.90;;;;;;5031873;28;20022;-39
2021/08/16 05:02:05;;;;;;;8.13;3.42;;;18.20;99.90;;;;;;5031741;28;20346;-40
2021/08/16 05:04:30;;;;;;;10.82;4.53;;;18.30;99.90;;;;;;5030574;28;20078;-37
2021/08/16 05:06:56;;;;;;;13.13;4.63;;;18.30;99.90;;;;;;5031531;28;20033;-38
2021/08/16 05:09:21;;;;;;;7.88;3.83;;;18.30;99.90;;;;;;5031613;28;20042;-41
2021/08/16 05:11:47;;;;;;;11.50;4.30;;;18.30;99.90;;;;;;5031056;28;20038;-34
2021/08/16 05:14:12;;;;;;;13.82;4.68;;;18.30;99.90;;;;;;5031950;28;20032;-38
2021/08/16 05:16:38;;;;;;;10.00;4.43;;;18.30;99.90;;;;;;5031250;28;20394;-39
2021/08/16 05:19:04;;;;;;;11.32;4.55;;;18.30;99.90;;;;;;5031702;28;20026;-36
2021/08/16 05:21:31;;;;;;;12.35;4.10;;;18.30;99.90;;;;;;5031349;28;20389;-41
2021/08/16 05:23:56;;;;;;;10.98;4.53;;;18.30;99.90;;;;;;5030754;28;20033;-41
2021/08/16 05:26:22;;;;;;;12.60;4.80;;;18.40;99.90;;;;;;5031381;28;20048;-36
2021/08/16 05:28:51;;;;;;;17.83;5.43;;;18.40;99.90;;;;;;5030745;28;20116;-37
2021/08/16 05:31:16;;;;;;;11.85;4.82;;;18.40;99.90;;;;;;5031254;28;20021;-40
2021/08/16 05:33:42;;;;;;;11.40;5.18;;;18.40;99.90;;;;;;5031278;28;20028;-39
2021/08/16 05:36:07;;;;;;;17.95;6.13;;;18.40;99.90;;;;;;5030294;28;20029;-40
2021/08/16 05:38:33;;;;;;;9.07;5.05;;;18.40;99.90;;;;;;5030696;28;20126;-40
2021/08/16 05:40:58;;;;;;;12.35;5.28;;;18.40;99.90;;;;;;5030938;28;20029;-40
2021/08/16 05:43:24;;;;;;;12.55;5.75;;;18.50;99.90;;;;;;5030991;28;20098;-42
2021/08/16 05:45:49;;;;;;;14.52;5.57;;;18.50;99.90;;;;;;5029960;28;20022;-41
2021/08/16 05:48:17;;;;;;;14.85;5.95;;;18.50;99.90;;;;;;5031344;28;20022;-40
2021/08/16 05:50:43;;;;;;;10.50;6.35;;;18.50;99.90;;;;;;5031457;28;20061;-40
2021/08/16 05:53:10;;;;;;;14.32;6.18;;;18.60;99.90;;;;;;5029858;28;20013;-40
2021/08/16 05:55:35;;;;;;;13.98;7.18;;;18.60;99.90;;;;;;5030681;28;20037;-39
2021/08/16 05:58:01;;;;;;;13.93;7.00;;;18.60;99.90;;;;;;5030339;28;20020;-39
2021/08/16 06:00:26;;;;;;;12.05;6.30;;;18.60;99.90;;;;;;5030245;28;20025;-41
2021/08/16 06:02:52;;;;;;;12.98;6.15;;;18.50;99.90;;;;;;5030547;28;20032;-36
2021/08/16 06:05:20;;;;;;;15.85;7.20;;;18.50;99.90;;;;;;5029754;28;20032;-38
2021/08/16 06:07:46;;;;;;;12.95;7.13;;;18.50;99.90;;;;;;5029663;28;20064;-40
2021/08/16 06:10:11;;;;;;;14.05;7.32;;;18.50;99.90;;;;;;5030651;28;20094;-40
2021/08/16 06:12:37;;;;;;;13.63;7.32;;;18.50;99.90;;;;;;5030143;28;20038;-43
2021/08/16 06:15:03;;;;;;;14.23;7.82;;;18.50;99.90;;;;;;5030490;28;20391;-42
2021/08/16 06:17:29;;;;;;;10.82;7.13;;;18.50;99.90;;;;;;5030016;28;20029;-44
2021/08/16 06:19:55;;;;;;;11.70;7.32;;;18.50;99.90;;;;;;5029758;28;20026;-37
2021/08/16 06:22:21;;;;;;;14.73;7.50;;;18.50;99.90;;;;;;5030131;28;20024;-37
2021/08/16 06:24:46;;;;;;;13.90;7.68;;;18.60;99.90;;;;;;5029913;28;20022;-38
2021/08/16 06:27:12;;;;;;;12.93;7.53;;;18.60;99.90;;;;;;5030055;28;20033;-37
2021/08/16 06:29:37;;;;;;;12.90;7.32;;;18.50;99.90;;;;;;5029887;28;20515;-38
2021/08/16 06:32:03;;;;;;;14.10;8.20;;;18.50;99.90;;;;;;5030177;28;20018;-42
2021/08/16 06:34:29;;;;;;;14.40;8.85;;;18.50;99.90;;;;;;5029805;28;20025;-42
2021/08/16 06:36:55;;;;;;;16.20;10.35;;;18.40;99.90;;;;;;5029711;28;20469;-41
2021/08/16 06:39:23;;;;;;;15.63;8.52;;;18.30;99.90;;;;;;5029970;28;20440;-38
2021/08/16 06:41:50;;;;;;;17.17;10.13;;;18.30;99.90;;;;;;5029051;28;20018;-37
2021/08/16 06:44:17;;;;;;;9.63;7.80;;;18.10;99.90;;;;;;5030518;28;20030;-40
2021/08/16 06:46:47;;;;;;;11.70;9.10;;;18.10;99.90;;;;;;5030404;28;20009;-39
2021/08/16 06:49:14;;;;;;;11.13;7.50;;;18.00;99.90;;;;;;5028900;28;20033;-40
2021/08/16 06:51:39;;;;;;;11.05;7.72;;;17.90;99.90;;;;;;5029688;28;20033;-41
2021/08/16 06:54:05;;;;;;;12.75;7.95;;;17.90;99.90;;;;;;5029211;28;20556;-41
2021/08/16 06:56:31;;;;;;;14.20;9.82;;;17.90;99.90;;;;;;5029801;28;20025;-41
2021/08/16 06:58:57;;;;;;;13.38;9.40;;;17.90;99.90;;;;;;5029434;28;20056;-40
2021/08/16 07:01:25;;;;;;;11.38;8.30;;;17.80;99.90;;;;;;5029009;28;20049;-39
2021/08/16 07:03:51;;;;;;;14.65;9.65;;;17.80;99.90;;;;;;5029259;28;20018;-43
2021/08/16 07:06:16;;;;;;;11.52;8.32;;;17.80;99.90;;;;;;5029533;28;20233;-39
2021/08/16 07:08:42;;;;;;;10.35;7.95;;;17.80;99.90;;;;;;5028549;28;20104;-40
2021/08/16 07:11:08;;;;;;;11.32;6.88;;;17.80;99.90;;;;;;5030184;28;20034;-41
2021/08/16 07:13:33;;;;;;;6.60;5.90;;;17.90;99.90;;;;;;5029234;28;20048;-42
2021/08/16 07:15:59;;;;;;;10.48;6.47;;;17.90;99.90;;;;;;5028239;28;20010;-39
2021/08/16 07:18:24;;;;;;;7.93;6.05;;;18.00;99.90;;;;;;5029533;28;20029;-39
2021/08/16 07:20:55;;;;;;;8.85;6.35;;;18.00;99.90;;;;;;5029257;28;20041;-39
2021/08/16 07:23:21;;;;;;;8.50;6.00;;;18.00;99.90;;;;;;5029287;28;20519;-37
2021/08/16 07:25:47;;;;;;;7.10;5.72;;;18.00;99.90;;;;;;5028514;28;20025;-42
2021/08/16 07:28:13;;;;;;;7.18;5.82;;;18.00;99.90;;;;;;5029705;28;20476;-40
2021/08/16 07:30:39;;;;;;;8.85;5.85;;;17.90;99.90;;;;;;5028214;28;20045;-40
2021/08/16 07:33:04;;;;;;;6.13;4.18;;;17.90;99.90;;;;;;5029997;28;20048;-40
2021/08/16 07:35:30;;;;;;;4.63;3.95;;;17.90;99.90;;;;;;5029126;28;20155;-37
2021/08/16 07:37:57;;;;;;;5.97;3.00;;;17.90;99.90;;;;;;5028745;28;20428;-42
2021/08/16 07:40:23;;;;;;;4.60;3.22;;;17.80;99.90;;;;;;5029416;28;20023;-35
2021/08/16 07:42:49;;;;;;;3.80;2.60;;;17.80;99.90;;;;;;5028746;28;20032;-41
2021/08/16 07:45:15;;;;;;;4.53;2.35;;;17.70;99.90;;;;;;5028368;28;20021;-38
2021/08/16 07:47:41;;;;;;;5.80;2.03;;;17.80;99.90;;;;;;5029029;28;20113;-42
2021/08/16 07:50:11;;;;;;;3.58;2.17;;;17.80;99.90;;;;;;5028651;28;20500;-38
2021/08/16 07:52:38;;;;;;;5.78;2.38;;;17.90;99.90;;;;;;5028043;28;20056;-40
2021/08/16 07:55:06;;;;;;;3.90;2.15;;;17.90;99.90;;;;;;5028208;28;20526;-39
2021/08/16 07:57:31;;;;;;;4.85;2.47;;;18.00;99.90;;;;;;5028774;28;20068;-40
2021/08/16 07:59:58;;;;;;;5.25;2.45;;;18.00;99.90;;;;;;5027797;28;20021;-39
2021/08/16 08:02:24;;;;;;;5.55;2.40;;;18.10;99.90;;;;;;5029131;28;20029;-40
2021/08/16 08:04:49;;;;;;;5.35;2.30;;;18.20;99.90;;;;;;5028528;28;20026;-42
2021/08/16 08:07:15;;;;;;;2.65;1.75;;;18.30;99.90;;;;;;5028393;28;20022;-38
2021/08/16 08:09:41;;;;;;;5.43;2.63;;;18.40;99.90;;;;;;5029264;28;20155;-38
2021/08/16 08:12:06;;;;;;;5.10;2.30;;;18.50;99.90;;;;;;5027613;28;20057;-38
2021/08/16 08:14:33;;;;;;;5.13;2.08;;;18.60;99.90;;;;;;5028848;28;20041;-41
2021/08/16 08:16:59;;;;;;;6.32;3.08;;;18.60;99.90;;;;;;5029109;28;20052;-41
2021/08/16 08:19:25;;;;;;;5.97;2.28;;;18.50;99.90;;;;;;5028073;28;20030;-41
2021/08/16 08:21:51;;;;;;;5.80;2.50;;;18.30;99.90;;;;;;5028507;28;20030;-42
2021/08/16 08:24:16;;;;;;;3.78;2.20;;;18.10;99.90;;;;;;5028180;28;20029;-37
2021/08/16 08:26:42;;;;;;;10.38;2.90;;;17.80;99.90;;;;;;5028227;28;20029;-36
2021/08/16 08:29:07;;;;;;;8.50;2.33;;;17.30;99.90;;;;;;5032650;28;20020;-41
2021/08/16 08:31:34;;;;;;;6.93;2.80;;;16.80;99.90;;;;;;5032476;28;20244;-41
2021/08/16 08:34:00;;;;;;;5.07;2.63;;;16.50;99.90;;;;;;5032477;28;20026;-43
2021/08/16 08:36:26;;;;;;;4.63;2.67;;;16.40;99.90;;;;;;5032722;28;20025;-41
2021/08/16 08:38:51;;;;;;;4.57;2.80;;;16.30;99.90;;;;;;5032256;28;20565;-44
2021/08/16 08:41:17;;;;;;;9.05;2.80;;;16.30;99.90;;;;;;5032347;28;20026;-44
2021/08/16 08:43:44;;;;;;;5.03;3.00;;;16.30;99.90;;;;;;5032061;28;20105;-42
2021/08/16 08:46:10;;;;;;;7.15;2.70;;;16.30;99.90;;;;;;5032398;28;20022;-41
2021/08/16 08:48:36;;;;;;;3.65;2.60;;;16.40;99.90;;;;;;5031527;28;20068;-41
2021/08/16 08:51:02;;;;;;;7.30;3.03;;;16.60;99.90;;;;;;5032980;28;20029;-44
2021/08/16 08:53:28;;;;;;;6.15;2.70;;;16.80;99.90;;;;;;5032581;28;20026;-44
2021/08/16 08:55:54;;;;;;;6.80;2.72;;;17.00;99.90;;;;;;5031299;28;20025;-44
2021/08/16 08:58:20;;;;;;;6.10;2.60;;;17.20;99.90;;;;;;5032101;28;20021;-40
2021/08/16 09:00:46;;;;;;;5.00;2.75;;;17.40;99.90;;;;;;5031693;28;20536;-42
2021/08/16 09:03:12;;;;;;;4.78;2.63;;;17.50;99.90;;;;;;5032048;28;20385;-38
2021/08/16 09:05:50;;;;;;;6.25;2.70;;;17.60;99.90;;;;;;5031785;28;20503;-41
2021/08/16 09:08:33;;;;;;;5.95;2.80;;;17.80;99.90;;;;;;5031715;28;20393;-39
2021/08/16 09:11:08;;;;;;;6.30;2.90;;;17.90;99.90;;;;;;5032153;28;20116;-40
2021/08/16 09:13:33;;;;;;;6.50;2.92;;;17.90;99.90;;;;;;5031214;28;20049;-40
2021/08/16 09:16:10;;;;;;;5.28;2.47;;;18.00;99.90;;;;;;5031043;28;20018;-43
2021/08/16 09:18:35;;;;;;;6.20;2.40;;;18.00;99.90;;;;;;5031860;28;20037;-42
2021/08/16 09:21:01;;;;;;;5.57;2.58;;;18.10;99.90;;;;;;5031955;28;20036;-41
2021/08/16 09:23:28;;;;;;;4.28;3.00;;;18.30;99.90;;;;;;5030905;28;20013;-43
2021/08/16 09:25:56;;;;;;;5.68;2.72;;;18.30;99.90;;;;;;5031122;28;20037;-40
2021/08/16 09:28:30;;;;;;;8.27;3.13;;;18.40;99.90;;;;;;5031807;28;20045;-41
2021/08/16 09:30:57;;;;;;;4.18;2.13;;;18.50;99.90;;;;;;5030617;28;20041;-39
2021/08/16 09:33:23;;;;;;;6.57;2.58;;;18.50;99.90;;;;;;5031194;28;20021;-41
2021/08/16 09:35:55;;;;;;;10.32;2.90;;;18.40;99.90;;;;;;5031161;28;20119;-42
2021/08/16 09:38:41;;;;;;;5.88;2.80;;;18.40;99.90;;;;;;5030739;28;20017;-42
2021/08/16 09:41:22;;;;;;;9.02;3.00;;;18.30;99.90;;;;;;5021352;28;20431;-40
2021/08/16 09:43:49;;;;;;;7.40;2.83;;;18.20;99.90;;;;;;5030470;28;20025;-43
2021/08/16 09:46:16;;;;;;;7.95;2.95;;;18.10;99.90;;;;;;5031248;28;20032;-39
2021/08/16 09:48:43;;;;;;;8.27;3.03;;;18.10;99.90;;;;;;5030581;28;20018;-41
2021/08/16 09:51:18;;;;;;;6.05;3.22;;;18.00;99.90;;;;;;5030781;28;20418;-41
2021/08/16 09:53:45;;;;;;;7.38;3.05;;;17.90;99.90;;;;;;5030927;28;20022;-36
2021/08/16 09:56:10;;;;;;;6.38;2.78;;;17.90;99.90;;;;;;5031459;28;20025;-43
2021/08/16 09:58:36;;;;;;;10.07;3.10;;;17.90;99.90;;;;;;5030192;28;20017;-41
2021/08/16 10:01:03;;;;;;;6.03;2.97;;;18.10;99.90;;;;;;5031183;28;20329;-42
2021/08/16 10:03:30;;;;;;;7.18;3.47;;;18.20;99.90;;;;;;5031480;28;20021;-41
2021/08/16 10:05:56;;;;;;;6.85;3.00;;;18.40;99.90;;;;;;5027096;28;20365;-41
2021/08/16 10:08:24;;;;;;;7.63;3.40;;;18.50;99.90;;;;;;5028470;28;20075;-42
2021/08/16 10:10:53;;;;;;;7.90;3.20;;;18.50;99.90;;;;;;5029333;28;20036;-41
2021/08/16 10:13:23;;;;;;;7.15;3.42;;;18.50;99.90;;;;;;5030496;28;20046;-41
2021/08/16 10:16:10;;;;;;;7.57;4.20;;;18.50;99.90;;;;;;5030068;28;20060;-41
2021/08/16 10:18:45;;;;;;;7.35;3.28;;;18.50;99.90;;;;;;5020064;28;20021;-42
2021/08/16 10:21:16;;;;;;;7.32;3.78;;;18.40;99.90;;;;;;5030343;28;20068;-37
2021/08/16 10:23:47;;;;;;;8.25;4.25;;;18.50;99.90;;;;;;5010528;28;20026;-37
2021/08/16 10:26:33;;;;;;;7.10;3.55;;;18.50;99.90;;;;;;5025278;28;20067;-40
2021/08/16 10:29:04;;;;;;;9.00;4.70;;;18.60;99.90;;;;;;5010830;28;20049;-38
2021/08/16 10:31:32;;;;;;;8.45;4.50;;;18.80;99.90;;;;;;5026164;28;20377;-41
2021/08/16 10:33:58;;;;;;;9.63;4.63;;;18.90;99.70;;;;;;5029255;28;20108;-41
2021/08/16 10:36:24;;;;;;;8.52;4.45;;;19.00;98.40;;;;;;5030918;28;20021;-40
2021/08/16 10:38:59;;;;;;;12.00;4.35;;;19.00;99.00;;;;;;5029320;28;20090;-43
2021/08/16 10:41:39;;;;;;;10.13;4.57;;;19.10;99.40;;;;;;5029262;28;20018;-42
2021/08/16 10:44:14;;;;;;;8.07;4.97;;;19.20;98.60;;;;;;5030168;28;20472;-39
2021/08/16 10:46:40;;;;;;;8.75;4.53;;;19.40;98.70;;;;;;5030160;28;20029;-40
2021/08/16 10:49:08;;;;;;;9.43;4.88;;;19.50;98.00;;;;;;5029762;28;20120;-39
2021/08/16 10:51:44;;;;;;;7.25;4.57;;;19.50;98.20;;;;;;5028574;28;20029;-42
2021/08/16 10:54:21;;;;;;;8.32;4.85;;;19.60;98.50;;;;;;5030263;28;20393;-38
2021/08/16 10:56:50;;;;;;;7.47;4.90;;;19.70;98.30;;;;;;5029163;28;20100;-36
2021/08/16 10:59:17;;;;;;;10.68;5.70;;;19.70;98.10;;;;;;5029865;28;20029;-37
2021/08/16 11:01:44;;;;;;;10.68;5.30;;;19.80;98.10;;;;;;5028661;28;20018;-41
2021/08/16 11:04:15;;;;;;;9.05;4.82;;;19.70;97.90;;;;;;5030116;28;20083;-38
2021/08/16 11:06:55;;;;;;;10.45;5.53;;;19.60;98.00;;;;;;5029843;28;20392;-42
2021/08/16 11:09:25;;;;;;;7.55;4.32;;;19.60;97.80;;;;;;5029653;28;20030;-39
2021/08/16 11:12:03;;;;;;;6.93;4.35;;;19.70;98.00;;;;;;5029562;28;20113;-42
2021/08/16 11:14:30;;;;;;;7.47;4.60;;;19.90;97.80;;;;;;5030441;28;20060;-41
2021/08/16 11:16:59;;;;;;;7.05;3.90;;;20.00;97.20;;;;;;5029034;28;20557;-41
2021/08/16 11:19:26;;;;;;;7.90;3.88;;;20.00;96.20;;;;;;5030366;28;20079;-44
2021/08/16 11:21:52;;;;;;;8.18;4.07;;;20.00;96.40;;;;;;5028954;28;20064;-37
2021/08/16 11:24:35;;;;;;;5.55;3.30;;;19.90;96.20;;;;;;5030320;28;20052;-39
2021/08/16 11:27:11;;;;;;;5.03;3.30;;;19.60;96.40;;;;;;5043157;28;20013;-38
2021/08/16 11:29:38;;;;;;;6.57;3.50;;;19.50;97.00;;;;;;5017103;28;20033;-39
2021/08/16 11:32:05;;;;;;;6.75;3.33;;;19.50;97.10;;;;;;5029311;28;20024;-40
2021/08/16 11:34:43;;;;;;;6.78;3.63;;;19.50;96.40;;;;;;5029138;28;20022;-38
2021/08/16 11:37:11;;;;;;;4.18;2.78;;;19.40;96.10;;;;;;5028826;28;20148;-43
2021/08/16 11:39:37;;;;;;;4.40;2.80;;;19.00;97.40;;;;;;5028239;28;20021;-39
2021/08/16 11:42:04;;;;;;;5.47;3.50;;;18.50;99.30;;;;;;5029204;28;20033;-38
2021/08/16 11:44:32;;;;;;;4.32;2.90;;;17.80;99.90;;;;;;5028565;28;20131;-36
2021/08/16 11:46:59;;;;;;;5.70;3.10;;;17.30;99.90;;;;;;5028619;28;20033;-40
2021/08/16 11:49:29;;;;;;;4.40;2.72;;;17.20;99.90;;;;;;5028823;28;20126;-41
2021/08/16 11:51:56;;;;;;;8.13;3.80;;;17.10;99.90;;;;;;5027889;28;20021;-42
2021/08/16 11:54:33;;;;;;;6.82;3.30;;;17.10;99.90;;;;;;5029211;28;20053;-43
2021/08/16 11:57:04;;;;;;;6.90;3.47;;;17.10;99.90;;;;;;5009109;28;20033;-43
2021/08/16 11:59:32;;;;;;;5.38;3.28;;;17.10;99.90;;;;;;5023976;28;20022;-42
2021/08/16 12:02:00;;;;;;;7.50;3.42;;;17.20;99.90;;;;;;5027874;28;20052;-38
2021/08/16 12:04:26;;;;;;;8.07;3.45;;;17.20;99.90;;;;;;5028551;28;20013;-43
2021/08/16 12:06:57;;;;;;;6.68;3.42;;;17.20;99.90;;;;;;5028549;28;20037;-40
2021/08/16 12:09:40;;;;;;;6.97;3.42;;;17.00;99.90;;;;;;5029013;28;20355;-38
2021/08/16 12:12:07;;;;;;;9.57;3.22;;;16.70;99.90;;;;;;5027398;28;20090;-40
2021/08/16 12:14:37;;;;;;;9.48;3.55;;;16.40;99.90;;;;;;5029127;28;20021;-41
2021/08/16 12:17:05;;;;;;;7.05;3.25;;;16.10;99.90;;;;;;5028548;28;20020;-41
2021/08/16 12:19:31;;;;;;;10.55;3.40;;;15.80;99.90;;;;;;5028285;28;20037;-40
2021/08/16 12:22:14;;;;;;;8.15;3.55;;;15.60;99.90;;;;;;5028150;28;20367;-41
2021/08/16 12:24:43;;;;;;;14.45;4.18;;;15.50;99.90;;;;;;5027718;28;20079;-45
2021/08/16 12:27:11;;;;;;;9.35;3.45;;;15.50;99.90;;;;;;5027878;28;20036;-40
2021/08/16 12:29:44;;;;;;;11.43;3.58;;;15.60;99.90;;;;;;5028843;28;20041;-43
2021/08/16 12:32:21;;;;;;;9.57;3.40;;;15.60;99.90;;;;;;5028411;28;20029;-43
2021/08/16 12:34:48;;;;;;;8.02;3.35;;;15.70;99.90;;;;;;5027763;28;20045;-41
2021/08/16 12:37:31;;;;;;;8.43;3.33;;;15.70;99.90;;;;;;5027820;28;20025;-40
2021/08/16 12:40:17;;;;;;;9.23;3.35;;;15.80;99.90;;;;;;5028057;28;20496;-38
2021/08/16 12:43:04;;;;;;;8.02;3.33;;;15.80;99.90;;;;;;5028624;28;20025;-43
2021/08/16 12:45:31;;;;;;;6.10;2.90;;;16.00;99.90;;;;;;5028555;28;20112;-39